Timeline UpdatesTrip UpdatesNews PostsPvt Posts♥♥Travel TipsAdmin PostsConv PostsFollowed PostsChat RequestsBlog PostsPNR Posts

Disclaimer
Search
 
 
Fri Nov 28, 2014 04:38:50 ISTHomeTrainsΣChainsAtlasPNRForumGalleryNewsFAQTripsMembersLoginFeedback
PNR Super Search

Ticket PNR Status Inquiry - PNR: 820-xxxxxxx (E-Ticket)

OLD STATUS

Status Last Updated on: Apr 18 2012 (3:24PM) IST

Date of Journey: Wed Apr 18, 2012   Class: AC 3-tier - 3A   (Total Seats available for this Class/Quota: Avbl >42)
Passenger 1: B3,28 (Booking Status: W/L 5,HO)
* Please Note that in case the Final Charts have not been prepared, the Current Status might upgrade/downgrade at a later stage.
Chart PREPARED

Balharshah-Mumbai CST Passenger/51196

Travel Time: 13h 29m    30 halts    Distance: 689 km    Avg Speed: 51 km/hr
Type: Passenger
Zone: CR/Central
Departs @ 17:58 (Avg 20m late)
Platform# ???
SMTWTFS
Chandrapur Maharashtra/CD 
Arrives @ 07:27 +1 night (Avg 18m late)
Platform# 2
SMTWTFS
Nasik Road/NK 

30 halts. 79 intermediate Stations between Chandrapur Maharashtra and Nasik Road

Show ALL intermediate Stations  Show Old Time-Table

#TrkCodeStation NameX/OArrivesAvgDepartsAvgHaltPFDay#KmSpeedElevZoneAddress
1/==/BPQBalharshah Junction (5)  -17:30+10--1-13.835188mCRBallarpur. Ph : 07172 - 240341, Maharashtra
2/==/BUPHBabupeth (2)X  17:46+2417:48+342m--1-4.534196mCRChandrapur, Maharashtra
3/==/CDChandrapur Maharashtra (3)»X  17:56+1817:58+202m--10.040194mCRChandrapur 442401, Maharashtra
4/==/TAETadaliXO  18:20+4218:22+432m--114.796207mCRTadali, Maharashtra
5/==/BUXBhandak (5)XO  18:28+4718:30+482m--124.345207mCRChandrapur, Maharashtra
6/==/MJRIMajri Junction (3)  18:43+3718:45+382m--134.093198mCRDist. Chandrapur, Maharashtra
7/==/WRRWarora (2)X  18:53+4218:55+422m--146.463214mCRWarora, Maharashtra
8/==/CKNIChikni Road (2)  19:05+5019:07+502m--156.979211mCRChandrapur, Maharashtra
9/==/NGINagriO  19:16+5219:18+522m--168.7100230mCRHinganghat, Maharashtra
10/==/HGTHinganghat (3)XO  19:28+5319:30+522m--185.554228mCRHinganghat, Maharashtra
11/==/SNNSonegaon (2)  19:48+5919:50+582m--1101.749262mCRWardha, Maharashtra
12/==/BPKBhugaon (3)X  19:58+5620:00+562m--1108.29267mCRWardha, Maharashtra
13/==/WRWardha Junction (4)XO21:10+1522:35+1685m--1118.977289mCRWardha 442001, Maharashtra
14/==/PLOPulgaon Junction (3)X  22:58+023:00+02m21148.470273mCRPulgaon, Maharashtra
15/==/DMNDhamangaon (2)  23:17+2323:19+232m--1168.471300mCRDhamangaon, Maharashtra
16/==/CNDChandur (2)X  23:33+023:35+02m--1185.138331mCRAmravati Distt, Maharashtra
17/==/BDBadnera Junction (4)  00:20+1200:23+113m12213.881335mCRBadnera (Amravati) 444701, Maharashtra
18/==/MZRMurtizapur (3)  00:54+000:55+01m--2255.689303mCRMurtajapur, Maharashtra
19/==/AKAkola Junction (7)  01:20+1501:25+155m12292.880284mCRAkola-444001, Maharashtra
20/==/SEGShegaon (2)O  01:53+301:55+32m--2330.0106281mCRShegaon 444203, Maharashtra
21/==/JMJalamb Junction (3)  02:02-02:05-3m--2342.492259mCRJalamb, Maharashtra
22/==/NNNandura (2)  02:13+802:15+72m--2354.673267mCRNandura, Maharashtra
23/==/MKUMalkapur (2)X  02:38+002:40+02m22382.578252mCRMalkapur, Maharashtra
24/==/BDWDBodwad (2)X  02:55-02:57-2m--2402.166294mCRBodwad, Maharashtra
25/==/VNAVarangaon (3)X  03:13-03:15-2m--2419.730220mCRVarangaon, Maharashtra
26/==/BSLBhusaval Junction (8)XO  03:40+703:50+710m32432.452208mCRBhusaval 425201, Maharashtra
27/==/JLJalgaon Junction (4)X  04:18+1204:20+122m22456.587213mCRJalgaon 425001, Maharashtra
28/==/PCPachora Junction (4)  04:53+1504:55+152m--2504.284264mCRPachora 424201, Maharashtra
29/==/CSNChalisgaon Junction (3)X  05:27+605:30+63m--2549.190352mCRChalisgaon 424101, Maharashtra
30/==/NGNNandgaon (3)  05:58-06:00-2m--2591.269476mCRNandgaon, Maharashtra
31/==/MMRManmad Junction (6)X  06:22+1106:25+113m42616.682580mCRManmad 423104, Maharashtra
32/==/LSLasalgaon (3)  06:43+006:45+02m--2641.178592mCRLasalgaon, Maharashtra
33/==/NRNiphad (3)  06:58-07:00-2m22658.070550mCRNashik, Maharashtra
34/==/NKNasik Road (3)•  07:27+1807:30+183m22689.443563mCRNashik 422101, Maharashtra
35/==/DVLDevlali (3)  07:38-07:40-2m22695.139561mCRDist. Nashik 422401, Maharashtra
36/==/IGPIgatpuri (4)X  08:50+208:55+25m32740.023589mCRIgatpuri 422403, Maharashtra
37/==/KSRAKasara (4)XO  09:33+909:35+82m--2754.465290mCRDist. Thane 421602, Maharashtra
38/==/KYNKalyan Junction (8)O  10:40 10:37+1210:45 10:40+125 3m52821.85310mCRKalyan 421301, Maharashtra
39/==/TNAThane (10)  11:08 11:03+1211:10 11:05+122m62842.05810mCRThane (West) 400602, Maharashtra
40/==/DRMumbai Dadar Central (8)  11:37 11:30+1111:40 11:33+113m62866.3197mCRMumbai 400014, Maharashtra
41/==/CSTMMumbai CST (18)  12:00+15---2874.9-10mCRMumbai 400001, Maharashtra
Scroll to Top
Scroll to Bottom